RPLLOTBD

Guest
Details From RPLL - Manille Ninoy Aquino Intl
To OTBD - Doha Intl
Flight Number -
Tags Generated
Created
Modified
Stats Distance 3,935 nm / 7,287 km
Max Altitude 0 ft / 0 m
Waypoints 5
Social Downloads 1
Likes 0
Share VATSIM

Download

Looking for another format? Having issues loading an existing format? Contact us
Advertisement - Login to hide

Notes

Generated

Route

RPLL KJ RAV DOH30 OTBD

ID Type Via Altitude Latitude Longitude Leg Dist Tot Dist Heading (true) Name
O RPLL APT - 0 ft / 0 m 14.52421˚ 121.00346˚ - 0 nm - -
KJ NDB - 0 ft / 0 m 24.82043˚ 79.91674˚ 2394 nm 2394 nm 291° / 277° KHAJURAHO NDB
RAV VOR - 0 ft / 0 m 25.58843˚ 55.94633˚ 1301 nm 3696 nm 277° / 267° RAS AL KHAIMAH VOR-DME
DOH30 FIX - 0 ft / 0 m 25.28013˚ 51.55651˚ 238 nm 3934 nm 266° / 265° -
O OTBD APT - 0 ft / 0 m 25.28022˚ 51.55653˚ 0 nm 3934 nm 10° / 10° -

Altitude Profile

Advertisement - Login to hide

Weather


0- 5 10 15 20 25 30 35+ Temperature / ° C

Clouds and Precipitation
Forecast for 2017-12-11 06:00 UTC. Updated 2 hours ago

Ground ~20,000 ft ~40,000 ft Winds

RPLL

Details ICAO RPLL (MNL)
Name Ninoy Aquino International Airport
Region Philippines
Timezone Asia/Manila (UTC+8.0)
Stats Elevation 75 ft / 23 m (AMSL)
Location 14.511513° 121.012718°
Runways 2
Magnetic Variation 2.156° W

METAR

RPLL 110200Z VRB03KT 9000 SCT023 OVC100 28/28 Q1011 NOSIG RMK A2985

Decode

TAF

TAF RPLL 102300Z 1100/1206 11006KT 9999 FEW025 SCT100 TX32/1106Z TN25/1121Z TEMPO 1100/1106 10008KT SCT023 BKN100 TEMPO 1113/1119 12004KT 9000 -SHRA FEW022CB SCT023 BKN090

Decode

Departure Runways

ID Width Length Bearing (true) Bearing (mag) Surface Threshold Offset Overrun Length
06 211 ft / 64 m 11,788 ft / 3,593 m 60.18° 62.34° Asphalt 587 ft / 179 m 0 ft / 0 m
13 151 ft / 46 m 5,850 ft / 1,783 m 134.93° 137.09° Asphalt 0 ft / 0 m 696 ft / 212 m
24 211 ft / 64 m 11,788 ft / 3,593 m 240.19° 242.35° Asphalt 0 ft / 0 m 331 ft / 101 m
31 151 ft / 46 m 5,850 ft / 1,783 m 314.93° 317.09° Asphalt 0 ft / 0 m 459 ft / 140 m

OTBD

Details ICAO OTBD (DOH)
Name DOHA INTL
Region Qatar
Timezone Asia/Qatar (UTC+3.0)
Stats Elevation 35 ft / 11 m (AMSL)
Location 25.261056° 51.564999°
Runways 1
Magnetic Variation 2.481° E

METAR

OTBD 110200Z 29008KT 250V320 CAVOK 16/09 Q1020 NOSIG

Decode

TAF

TAF OTBD 102301Z 1100/1206 32013KT CAVOK

Decode

Destination Runways

ID Width Length Bearing (true) Bearing (mag) Surface Threshold Offset Overrun Length
16 151 ft / 46 m 15,065 ft / 4,592 m 158.20° 155.72° Asphalt 2,460 ft / 750 m 98 ft / 30 m
34 151 ft / 46 m 15,065 ft / 4,592 m 338.21° 335.73° Asphalt 0 ft / 0 m 460 ft / 140 m

Approach Navaids

Runway Type Ident Frequency Range Bearing (true) Bearing (mag) Slope Elevation
34 Localiser IBD 109.50 MHz 18 nm / 33 km 338.32° 335.84° - 38 ft / 12 m (AMSL)
34 Glidescope IBD 109.50 MHz 10 nm / 19 km 338.21° 335.73° 3.00° 35 ft / 11 m (AMSL)
34 DME IBD 109.50 MHz 18 nm / 33 km - - - 35 ft / 11 m (AMSL)

Popular Alternatives